Pagina principale
METAR-TAF:

METAR-TAF

Aeroporti :

Den Helder, Paesi Bassi

latitudine: 52-55N, longitudine: 004-47E, altezza: 0 m

Osservazione

Il bollettino è stato emesso 13 minuti fa, alle 00:25 UTC
Vento 5 kt da ovest/nord-ovest, variando fra ovest e nord/nord-ovest
Temperature 14°C
Umidità 82%
Pressione 1020 hPa
Visibilità 10 km o più
Cielo coperto ad un'altezza di 1600 ft

METAR: EHKD 160025Z AUTO 30005KT 270V340 9999 OVC016 14/11 Q1020 WHT

Ora: 02:38 (00:38 UTC)

Previsione

Il bollettino è stato emesso 4 ore e 28 minuti fa, alle 20:10 UTC
Previsione valida dal 15 alle 21 UTC al 16 alle 09 UTC
Vento 8 kt da ovest/nord-ovest
Visibilità 10 km o più
Nuvoloso ad un'altezza di 1800 ft
Probabilità 30% :
Temporaneamente
dal 15 alle 21 UTC al 16 alle 09 UTC
Visibilità: 4000 m
Nubi sparse ad un'altezza di 1000 ft
Nuvoloso ad un'altezza di 1500 ft
pioggia debole

TAF: EHKD 152010Z 1521/1609 30008KT 9999 BKN018 PROB30 TEMPO 1521/1609 4000 -RA SCT010 BKN015

Osservazioni e previsioni meteorologiche di più di 4000 aeroporti (messaggi METAR e TAF).

Le stazioni disponibili sono rappresentate dai dischi gialli e rossi sulla carta.

Puntare il mouse per vedere il nome della stazione.

Clicca sopra per visualizzare le osservazioni e previsioni meteorologiche.

Per cambiare la mappa : fare clic sui pulsanti verdi con una croce nera per ingrandire, il pulsante verde con un trattino per diminuire, o sulla freccia verde per le mappe adiacenti.


METAR-TAF: